KVGT/VGT METAR and TAF weather

Enter ICAO airport designator
Station Type Date Time Source
KVGT METAR 2019/04/23 03:53 UTC NOAA

KVGT 230353Z AUTO 02009KT 10SM CLR 24/00 A2993 RMK AO2 SLP137 T02390000


Station Type Date Time Source
KVGT Decoded METAR 2019/04/23 03:53 UTC NOAA

NORTH LAS VEGAS, NV, United States (KVGT) 36-12N 115-11W
Apr 22, 2019 - 11:53 PM EDT / 2019.04.23 0353 UTC
Wind: from the NNE (020 degrees) at 10 MPH (9 KT):0
Visibility: 10 mile(s):0
Sky conditions: clear
Temperature: 75.0 F (23.9 C)
Dew Point: 32.0 F (0.0 C)
Relative Humidity: 20%
Pressure (altimeter): 29.93 in. Hg (1013 hPa)
ob: KVGT 230353Z AUTO 02009KT 10SM CLR 24/00 A2993 RMK AO2 SLP137 T02390000
cycle: 4

Station Type Date Time Source
KVGT TAF 2019/04/23 01:58 UTC NOAA

TAF
AMD KVGT 230058Z 2301/2324 02008KT P6SM SCT080
FM230400 36014G22KT P6SM SKC
FM231800 02011KT P6SM SKC

Example: see airport list